sensor_id;sensor_type;location;lat;lon;timestamp;P1;durP1;ratioP1;P2;durP2;ratioP2
19569;SDS011;9931;51.458;7.256;2023-06-14T00:00:32;16.02;;;1.52;;
19569;SDS011;9931;51.458;7.256;2023-06-14T00:02:59;27.13;;;2.35;;
19569;SDS011;9931;51.458;7.256;2023-06-14T00:05:24;53.05;;;3.78;;
19569;SDS011;9931;51.458;7.256;2023-06-14T00:07:49;18.50;;;1.70;;
19569;SDS011;9931;51.458;7.256;2023-06-14T00:10:18;65.15;;;4.43;;
19569;SDS011;9931;51.458;7.256;2023-06-14T00:12:43;27.25;;;2.17;;
19569;SDS011;9931;51.458;7.256;2023-06-14T00:15:08;12.93;;;1.27;;
19569;SDS011;9931;51.458;7.256;2023-06-14T00:17:36;27.35;;;2.17;;
19569;SDS011;9931;51.458;7.256;2023-06-14T00:20:04;66.00;;;4.53;;
19569;SDS011;9931;51.458;7.256;2023-06-14T00:22:31;7.47;;;0.88;;
19569;SDS011;9931;51.458;7.256;2023-06-14T00:24:56;22.42;;;1.88;;
19569;SDS011;9931;51.458;7.256;2023-06-14T00:27:21;25.33;;;2.13;;
19569;SDS011;9931;51.458;7.256;2023-06-14T00:29:47;27.38;;;2.25;;
19569;SDS011;9931;51.458;7.256;2023-06-14T00:32:12;27.57;;;2.23;;
19569;SDS011;9931;51.458;7.256;2023-06-14T00:34:37;18.30;;;1.60;;
19569;SDS011;9931;51.458;7.256;2023-06-14T00:37:02;63.90;;;4.35;;
19569;SDS011;9931;51.458;7.256;2023-06-14T00:39:28;19.88;;;1.80;;
19569;SDS011;9931;51.458;7.256;2023-06-14T00:41:53;20.87;;;1.87;;
19569;SDS011;9931;51.458;7.256;2023-06-14T00:44:18;64.40;;;4.40;;
19569;SDS011;9931;51.458;7.256;2023-06-14T00:46:46;35.20;;;2.72;;
19569;SDS011;9931;51.458;7.256;2023-06-14T00:49:12;45.70;;;3.33;;
19569;SDS011;9931;51.458;7.256;2023-06-14T00:51:39;23.17;;;2.03;;
19569;SDS011;9931;51.458;7.256;2023-06-14T00:54:05;75.75;;;5.10;;
19569;SDS011;9931;51.458;7.256;2023-06-14T00:56:30;96.70;;;6.40;;
19569;SDS011;9931;51.458;7.256;2023-06-14T00:58:55;49.25;;;3.58;;
19569;SDS011;9931;51.458;7.256;2023-06-14T01:01:21;32.90;;;2.60;;
19569;SDS011;9931;51.458;7.256;2023-06-14T01:03:47;20.17;;;1.77;;
19569;SDS011;9931;51.458;7.256;2023-06-14T01:08:51;22.38;;;2.00;;
19569;SDS011;9931;51.458;7.256;2023-06-14T01:11:22;24.85;;;2.05;;
19569;SDS011;9931;51.458;7.256;2023-06-14T01:13:48;30.38;;;2.40;;
19569;SDS011;9931;51.458;7.256;2023-06-14T01:16:14;41.03;;;2.95;;
19569;SDS011;9931;51.458;7.256;2023-06-14T01:18:40;24.95;;;2.10;;
19569;SDS011;9931;51.458;7.256;2023-06-14T01:21:19;29.35;;;2.40;;
19569;SDS011;9931;51.458;7.256;2023-06-14T01:23:44;25.30;;;2.03;;
19569;SDS011;9931;51.458;7.256;2023-06-14T01:26:09;67.00;;;4.67;;
19569;SDS011;9931;51.458;7.256;2023-06-14T01:28:34;53.07;;;3.80;;
19569;SDS011;9931;51.458;7.256;2023-06-14T01:31:01;35.05;;;2.67;;
19569;SDS011;9931;51.458;7.256;2023-06-14T01:33:29;21.65;;;1.90;;
19569;SDS011;9931;51.458;7.256;2023-06-14T01:35:54;49.30;;;3.55;;
19569;SDS011;9931;51.458;7.256;2023-06-14T01:38:21;57.83;;;4.10;;
19569;SDS011;9931;51.458;7.256;2023-06-14T01:40:47;20.15;;;1.80;;
19569;SDS011;9931;51.458;7.256;2023-06-14T01:43:13;32.67;;;2.55;;
19569;SDS011;9931;51.458;7.256;2023-06-14T01:45:40;20.67;;;1.70;;
19569;SDS011;9931;51.458;7.256;2023-06-14T01:48:05;36.95;;;2.70;;
19569;SDS011;9931;51.458;7.256;2023-06-14T01:50:31;26.77;;;2.13;;
19569;SDS011;9931;51.458;7.256;2023-06-14T01:52:56;22.02;;;1.85;;
19569;SDS011;9931;51.458;7.256;2023-06-14T01:55:21;62.60;;;4.22;;
19569;SDS011;9931;51.458;7.256;2023-06-14T01:57:47;22.35;;;1.83;;
19569;SDS011;9931;51.458;7.256;2023-06-14T02:00:12;40.20;;;2.95;;
19569;SDS011;9931;51.458;7.256;2023-06-14T02:02:38;54.38;;;3.75;;
19569;SDS011;9931;51.458;7.256;2023-06-14T02:05:03;61.13;;;4.22;;
19569;SDS011;9931;51.458;7.256;2023-06-14T02:07:29;22.30;;;1.88;;
19569;SDS011;9931;51.458;7.256;2023-06-14T02:09:54;28.42;;;2.33;;
19569;SDS011;9931;51.458;7.256;2023-06-14T02:12:19;21.07;;;1.87;;
19569;SDS011;9931;51.458;7.256;2023-06-14T02:14:44;16.92;;;1.52;;
19569;SDS011;9931;51.458;7.256;2023-06-14T02:17:10;41.38;;;3.05;;
19569;SDS011;9931;51.458;7.256;2023-06-14T02:19:35;102.40;;;6.38;;
19569;SDS011;9931;51.458;7.256;2023-06-14T02:22:00;30.73;;;2.40;;
19569;SDS011;9931;51.458;7.256;2023-06-14T02:24:25;26.13;;;2.10;;
19569;SDS011;9931;51.458;7.256;2023-06-14T02:26:51;28.40;;;2.30;;
19569;SDS011;9931;51.458;7.256;2023-06-14T02:29:16;136.97;;;8.70;;
19569;SDS011;9931;51.458;7.256;2023-06-14T02:31:41;28.75;;;2.33;;
19569;SDS011;9931;51.458;7.256;2023-06-14T02:34:06;80.53;;;5.35;;
19569;SDS011;9931;51.458;7.256;2023-06-14T02:36:33;46.42;;;3.33;;
19569;SDS011;9931;51.458;7.256;2023-06-14T02:38:59;10.38;;;1.08;;
19569;SDS011;9931;51.458;7.256;2023-06-14T02:41:24;35.35;;;2.72;;
19569;SDS011;9931;51.458;7.256;2023-06-14T02:43:51;20.67;;;1.75;;
19569;SDS011;9931;51.458;7.256;2023-06-14T02:46:16;44.67;;;3.13;;
19569;SDS011;9931;51.458;7.256;2023-06-14T02:48:41;19.98;;;1.70;;
19569;SDS011;9931;51.458;7.256;2023-06-14T02:51:06;53.50;;;3.75;;
19569;SDS011;9931;51.458;7.256;2023-06-14T02:53:33;44.20;;;3.10;;
19569;SDS011;9931;51.458;7.256;2023-06-14T02:55:58;45.53;;;3.30;;
19569;SDS011;9931;51.458;7.256;2023-06-14T02:58:24;22.63;;;2.25;;
19569;SDS011;9931;51.458;7.256;2023-06-14T03:00:50;26.98;;;2.17;;
19569;SDS011;9931;51.458;7.256;2023-06-14T03:03:17;26.48;;;2.20;;
19569;SDS011;9931;51.458;7.256;2023-06-14T03:05:44;69.60;;;4.60;;
19569;SDS011;9931;51.458;7.256;2023-06-14T03:08:12;36.72;;;2.72;;
19569;SDS011;9931;51.458;7.256;2023-06-14T03:10:42;80.63;;;5.38;;
19569;SDS011;9931;51.458;7.256;2023-06-14T03:13:08;153.75;;;9.70;;
19569;SDS011;9931;51.458;7.256;2023-06-14T03:15:33;35.83;;;2.73;;
19569;SDS011;9931;51.458;7.256;2023-06-14T03:17:58;19.35;;;1.65;;
19569;SDS011;9931;51.458;7.256;2023-06-14T03:20:24;21.83;;;1.90;;
19569;SDS011;9931;51.458;7.256;2023-06-14T03:22:53;5.10;;;0.73;;
19569;SDS011;9931;51.458;7.256;2023-06-14T03:25:19;29.67;;;2.25;;
19569;SDS011;9931;51.458;7.256;2023-06-14T03:27:45;19.25;;;1.75;;
19569;SDS011;9931;51.458;7.256;2023-06-14T03:30:11;18.80;;;1.63;;
19569;SDS011;9931;51.458;7.256;2023-06-14T03:32:36;29.75;;;2.35;;
19569;SDS011;9931;51.458;7.256;2023-06-14T03:35:01;11.83;;;1.20;;
19569;SDS011;9931;51.458;7.256;2023-06-14T03:37:26;8.27;;;0.98;;
19569;SDS011;9931;51.458;7.256;2023-06-14T03:39:52;28.23;;;2.27;;
19569;SDS011;9931;51.458;7.256;2023-06-14T03:42:17;97.28;;;6.28;;
19569;SDS011;9931;51.458;7.256;2023-06-14T03:44:42;62.33;;;4.27;;
19569;SDS011;9931;51.458;7.256;2023-06-14T03:47:08;55.93;;;3.90;;
19569;SDS011;9931;51.458;7.256;2023-06-14T03:49:33;28.30;;;2.28;;
19569;SDS011;9931;51.458;7.256;2023-06-14T03:51:58;41.47;;;3.03;;
19569;SDS011;9931;51.458;7.256;2023-06-14T03:54:24;40.78;;;3.08;;
19569;SDS011;9931;51.458;7.256;2023-06-14T03:56:49;28.35;;;2.25;;
19569;SDS011;9931;51.458;7.256;2023-06-14T03:59:14;29.50;;;2.40;;
19569;SDS011;9931;51.458;7.256;2023-06-14T04:01:40;13.00;;;1.20;;
19569;SDS011;9931;51.458;7.256;2023-06-14T04:04:11;85.00;;;5.50;;
19569;SDS011;9931;51.458;7.256;2023-06-14T04:06:37;21.17;;;1.77;;
19569;SDS011;9931;51.458;7.256;2023-06-14T04:09:02;16.55;;;1.52;;
19569;SDS011;9931;51.458;7.256;2023-06-14T04:11:27;48.65;;;3.47;;
19569;SDS011;9931;51.458;7.256;2023-06-14T04:13:53;26.08;;;2.13;;
19569;SDS011;9931;51.458;7.256;2023-06-14T04:16:18;61.03;;;4.13;;
19569;SDS011;9931;51.458;7.256;2023-06-14T04:18:44;20.38;;;1.77;;
19569;SDS011;9931;51.458;7.256;2023-06-14T04:21:09;29.80;;;2.40;;
19569;SDS011;9931;51.458;7.256;2023-06-14T04:23:34;23.40;;;1.95;;
19569;SDS011;9931;51.458;7.256;2023-06-14T04:25:59;24.27;;;2.03;;
19569;SDS011;9931;51.458;7.256;2023-06-14T04:28:27;52.20;;;3.63;;
19569;SDS011;9931;51.458;7.256;2023-06-14T04:30:52;28.30;;;2.22;;
19569;SDS011;9931;51.458;7.256;2023-06-14T04:33:18;26.42;;;2.13;;
19569;SDS011;9931;51.458;7.256;2023-06-14T04:35:43;26.13;;;2.15;;
19569;SDS011;9931;51.458;7.256;2023-06-14T04:38:12;36.83;;;2.78;;
19569;SDS011;9931;51.458;7.256;2023-06-14T04:40:37;21.48;;;1.80;;
19569;SDS011;9931;51.458;7.256;2023-06-14T04:43:07;19.55;;;1.70;;
19569;SDS011;9931;51.458;7.256;2023-06-14T04:45:32;18.85;;;1.63;;
19569;SDS011;9931;51.458;7.256;2023-06-14T04:48:00;62.03;;;4.27;;
19569;SDS011;9931;51.458;7.256;2023-06-14T04:50:26;31.70;;;2.45;;
19569;SDS011;9931;51.458;7.256;2023-06-14T04:52:52;26.70;;;2.17;;
19569;SDS011;9931;51.458;7.256;2023-06-14T04:55:18;37.15;;;2.78;;
19569;SDS011;9931;51.458;7.256;2023-06-14T04:57:44;25.25;;;2.13;;
19569;SDS011;9931;51.458;7.256;2023-06-14T05:00:09;65.32;;;4.53;;
19569;SDS011;9931;51.458;7.256;2023-06-14T05:02:36;21.10;;;1.77;;
19569;SDS011;9931;51.458;7.256;2023-06-14T05:05:02;16.27;;;1.48;;
19569;SDS011;9931;51.458;7.256;2023-06-14T05:07:27;22.63;;;1.88;;
19569;SDS011;9931;51.458;7.256;2023-06-14T05:09:53;29.27;;;2.30;;
19569;SDS011;9931;51.458;7.256;2023-06-14T05:12:18;32.27;;;2.50;;
19569;SDS011;9931;51.458;7.256;2023-06-14T05:14:43;19.40;;;1.65;;
19569;SDS011;9931;51.458;7.256;2023-06-14T05:17:08;5.45;;;0.73;;
19569;SDS011;9931;51.458;7.256;2023-06-14T05:19:34;14.95;;;1.40;;
19569;SDS011;9931;51.458;7.256;2023-06-14T05:21:59;24.83;;;2.10;;
19569;SDS011;9931;51.458;7.256;2023-06-14T05:24:25;28.17;;;2.35;;
19569;SDS011;9931;51.458;7.256;2023-06-14T05:26:50;15.93;;;1.60;;
19569;SDS011;9931;51.458;7.256;2023-06-14T05:29:16;32.08;;;2.60;;
19569;SDS011;9931;51.458;7.256;2023-06-14T05:31:41;14.38;;;1.33;;
19569;SDS011;9931;51.458;7.256;2023-06-14T05:34:06;65.37;;;4.23;;
19569;SDS011;9931;51.458;7.256;2023-06-14T05:36:31;16.67;;;1.55;;
19569;SDS011;9931;51.458;7.256;2023-06-14T05:38:56;7.15;;;0.98;;
19569;SDS011;9931;51.458;7.256;2023-06-14T05:41:25;23.60;;;2.17;;
19569;SDS011;9931;51.458;7.256;2023-06-14T05:43:51;17.10;;;1.70;;
19569;SDS011;9931;51.458;7.256;2023-06-14T05:46:16;29.60;;;2.38;;
19569;SDS011;9931;51.458;7.256;2023-06-14T05:48:46;21.77;;;2.00;;
19569;SDS011;9931;51.458;7.256;2023-06-14T05:51:12;18.42;;;1.95;;
19569;SDS011;9931;51.458;7.256;2023-06-14T05:53:37;44.83;;;3.63;;
19569;SDS011;9931;51.458;7.256;2023-06-14T05:56:02;13.90;;;1.42;;
19569;SDS011;9931;51.458;7.256;2023-06-14T05:58:27;16.05;;;1.60;;
19569;SDS011;9931;51.458;7.256;2023-06-14T06:00:52;2.83;;;0.80;;
19569;SDS011;9931;51.458;7.256;2023-06-14T06:03:18;9.73;;;1.50;;
19569;SDS011;9931;51.458;7.256;2023-06-14T06:05:44;19.10;;;2.63;;
19569;SDS011;9931;51.458;7.256;2023-06-14T06:08:09;5.47;;;1.73;;
19569;SDS011;9931;51.458;7.256;2023-06-14T06:10:34;18.95;;;3.65;;
19569;SDS011;9931;51.458;7.256;2023-06-14T06:13:00;17.23;;;2.40;;
19569;SDS011;9931;51.458;7.256;2023-06-14T06:15:25;36.83;;;4.85;;
19569;SDS011;9931;51.458;7.256;2023-06-14T06:17:50;17.27;;;2.50;;
19569;SDS011;9931;51.458;7.256;2023-06-14T06:20:16;21.65;;;2.50;;
19569;SDS011;9931;51.458;7.256;2023-06-14T06:22:42;16.27;;;1.90;;
19569;SDS011;9931;51.458;7.256;2023-06-14T06:25:07;16.63;;;1.90;;
19569;SDS011;9931;51.458;7.256;2023-06-14T06:27:33;27.95;;;2.53;;
19569;SDS011;9931;51.458;7.256;2023-06-14T06:29:58;22.60;;;2.30;;
19569;SDS011;9931;51.458;7.256;2023-06-14T06:32:24;16.58;;;1.95;;
19569;SDS011;9931;51.458;7.256;2023-06-14T06:34:49;24.35;;;2.20;;
19569;SDS011;9931;51.458;7.256;2023-06-14T06:37:15;25.08;;;2.53;;
19569;SDS011;9931;51.458;7.256;2023-06-14T06:39:40;19.27;;;2.38;;
19569;SDS011;9931;51.458;7.256;2023-06-14T06:42:05;20.57;;;2.43;;
19569;SDS011;9931;51.458;7.256;2023-06-14T06:44:31;25.55;;;2.63;;
19569;SDS011;9931;51.458;7.256;2023-06-14T06:46:57;34.38;;;3.05;;
19569;SDS011;9931;51.458;7.256;2023-06-14T06:49:22;22.45;;;2.47;;
19569;SDS011;9931;51.458;7.256;2023-06-14T06:52:00;16.10;;;1.97;;
19569;SDS011;9931;51.458;7.256;2023-06-14T06:54:27;19.60;;;2.00;;
19569;SDS011;9931;51.458;7.256;2023-06-14T06:56:52;16.00;;;2.10;;
19569;SDS011;9931;51.458;7.256;2023-06-14T06:59:17;30.00;;;2.80;;
19569;SDS011;9931;51.458;7.256;2023-06-14T07:01:42;17.60;;;1.97;;
19569;SDS011;9931;51.458;7.256;2023-06-14T07:04:07;51.07;;;4.40;;
19569;SDS011;9931;51.458;7.256;2023-06-14T07:06:33;19.30;;;3.00;;
19569;SDS011;9931;51.458;7.256;2023-06-14T07:08:58;37.50;;;4.00;;
19569;SDS011;9931;51.458;7.256;2023-06-14T07:11:26;27.73;;;4.13;;
19569;SDS011;9931;51.458;7.256;2023-06-14T07:13:51;17.37;;;2.37;;
19569;SDS011;9931;51.458;7.256;2023-06-14T07:16:17;38.33;;;4.38;;
19569;SDS011;9931;51.458;7.256;2023-06-14T07:18:42;20.77;;;2.70;;
19569;SDS011;9931;51.458;7.256;2023-06-14T07:21:07;17.63;;;2.70;;
19569;SDS011;9931;51.458;7.256;2023-06-14T07:23:36;22.00;;;2.85;;
19569;SDS011;9931;51.458;7.256;2023-06-14T07:26:01;15.32;;;2.00;;
19569;SDS011;9931;51.458;7.256;2023-06-14T07:28:29;26.17;;;2.73;;
19569;SDS011;9931;51.458;7.256;2023-06-14T07:30:55;26.02;;;2.88;;
19569;SDS011;9931;51.458;7.256;2023-06-14T07:33:20;20.55;;;2.53;;
19569;SDS011;9931;51.458;7.256;2023-06-14T07:35:45;25.30;;;2.73;;
19569;SDS011;9931;51.458;7.256;2023-06-14T07:38:11;17.92;;;2.65;;
19569;SDS011;9931;51.458;7.256;2023-06-14T07:40:36;20.13;;;2.72;;
19569;SDS011;9931;51.458;7.256;2023-06-14T07:43:01;18.90;;;2.63;;
19569;SDS011;9931;51.458;7.256;2023-06-14T07:45:27;18.65;;;2.40;;
19569;SDS011;9931;51.458;7.256;2023-06-14T07:47:52;15.63;;;2.20;;
19569;SDS011;9931;51.458;7.256;2023-06-14T07:50:17;41.20;;;3.88;;
19569;SDS011;9931;51.458;7.256;2023-06-14T07:52:43;53.03;;;4.53;;
19569;SDS011;9931;51.458;7.256;2023-06-14T08:13:26;53.58;;;4.32;;
19569;SDS011;9931;51.458;7.256;2023-06-14T08:15:51;23.42;;;2.58;;
19569;SDS011;9931;51.458;7.256;2023-06-14T08:18:16;17.30;;;2.10;;
19569;SDS011;9931;51.458;7.256;2023-06-14T08:20:41;5.60;;;1.63;;
19569;SDS011;9931;51.458;7.256;2023-06-14T08:23:07;6.80;;;1.35;;
19569;SDS011;9931;51.458;7.256;2023-06-14T08:25:33;23.58;;;2.55;;
19569;SDS011;9931;51.458;7.256;2023-06-14T08:27:59;15.27;;;2.35;;
19569;SDS011;9931;51.458;7.256;2023-06-14T08:30:24;24.55;;;2.40;;
19569;SDS011;9931;51.458;7.256;2023-06-14T08:32:50;22.83;;;2.53;;
19569;SDS011;9931;51.458;7.256;2023-06-14T08:35:16;28.13;;;2.97;;
19569;SDS011;9931;51.458;7.256;2023-06-14T08:37:41;16.55;;;2.03;;
19569;SDS011;9931;51.458;7.256;2023-06-14T08:40:28;48.08;;;4.25;;
19569;SDS011;9931;51.458;7.256;2023-06-14T08:42:53;20.00;;;2.88;;
19569;SDS011;9931;51.458;7.256;2023-06-14T08:45:22;24.67;;;3.28;;
19569;SDS011;9931;51.458;7.256;2023-06-14T08:47:47;28.80;;;3.70;;
19569;SDS011;9931;51.458;7.256;2023-06-14T08:50:23;8.77;;;2.47;;
19569;SDS011;9931;51.458;7.256;2023-06-14T08:52:51;15.40;;;1.90;;
19569;SDS011;9931;51.458;7.256;2023-06-14T08:55:18;19.83;;;2.97;;
19569;SDS011;9931;51.458;7.256;2023-06-14T08:57:44;30.73;;;23.45;;
19569;SDS011;9931;51.458;7.256;2023-06-14T09:00:11;23.48;;;3.08;;
19569;SDS011;9931;51.458;7.256;2023-06-14T09:02:38;25.13;;;3.55;;
19569;SDS011;9931;51.458;7.256;2023-06-14T09:05:03;19.45;;;3.08;;
19569;SDS011;9931;51.458;7.256;2023-06-14T09:07:28;44.05;;;4.72;;
19569;SDS011;9931;51.458;7.256;2023-06-14T09:10:07;15.95;;;3.05;;
19569;SDS011;9931;51.458;7.256;2023-06-14T09:12:33;27.10;;;3.88;;
19569;SDS011;9931;51.458;7.256;2023-06-14T09:14:58;19.57;;;2.83;;
19569;SDS011;9931;51.458;7.256;2023-06-14T09:17:24;29.02;;;4.07;;
19569;SDS011;9931;51.458;7.256;2023-06-14T09:19:49;22.77;;;3.28;;
19569;SDS011;9931;51.458;7.256;2023-06-14T09:22:16;40.10;;;4.55;;
19569;SDS011;9931;51.458;7.256;2023-06-14T09:24:41;33.83;;;4.15;;
19569;SDS011;9931;51.458;7.256;2023-06-14T09:27:06;22.67;;;3.23;;
19569;SDS011;9931;51.458;7.256;2023-06-14T09:29:33;11.13;;;2.78;;
19569;SDS011;9931;51.458;7.256;2023-06-14T09:31:58;18.65;;;4.70;;
19569;SDS011;9931;51.458;7.256;2023-06-14T09:34:23;13.50;;;4.47;;
19569;SDS011;9931;51.458;7.256;2023-06-14T09:36:48;23.95;;;4.90;;
19569;SDS011;9931;51.458;7.256;2023-06-14T09:39:16;41.60;;;5.10;;
19569;SDS011;9931;51.458;7.256;2023-06-14T09:41:42;17.75;;;4.13;;
19569;SDS011;9931;51.458;7.256;2023-06-14T09:44:08;80.60;;;7.80;;
19569;SDS011;9931;51.458;7.256;2023-06-14T09:46:34;17.98;;;3.53;;
19569;SDS011;9931;51.458;7.256;2023-06-14T09:49:00;19.70;;;3.42;;
19569;SDS011;9931;51.458;7.256;2023-06-14T09:51:26;43.75;;;5.38;;
19569;SDS011;9931;51.458;7.256;2023-06-14T09:53:52;20.63;;;4.25;;
19569;SDS011;9931;51.458;7.256;2023-06-14T09:56:41;42.83;;;5.82;;
19569;SDS011;9931;51.458;7.256;2023-06-14T09:59:06;21.42;;;3.95;;
19569;SDS011;9931;51.458;7.256;2023-06-14T10:01:34;21.33;;;5.90;;
19569;SDS011;9931;51.458;7.256;2023-06-14T10:06:25;45.85;;;13.57;;
19569;SDS011;9931;51.458;7.256;2023-06-14T10:08:57;18.23;;;10.07;;
19569;SDS011;9931;51.458;7.256;2023-06-14T10:11:24;43.08;;;10.30;;
19569;SDS011;9931;51.458;7.256;2023-06-14T10:13:50;27.33;;;9.23;;
19569;SDS011;9931;51.458;7.256;2023-06-14T10:16:17;15.25;;;8.30;;
19569;SDS011;9931;51.458;7.256;2023-06-14T10:21:25;20.30;;;9.98;;
19569;SDS011;9931;51.458;7.256;2023-06-14T10:23:52;28.40;;;9.95;;
19569;SDS011;9931;51.458;7.256;2023-06-14T10:26:21;47.40;;;14.20;;
19569;SDS011;9931;51.458;7.256;2023-06-14T10:29:00;19.52;;;10.77;;
19569;SDS011;9931;51.458;7.256;2023-06-14T10:34:11;83.72;;;16.40;;
19569;SDS011;9931;51.458;7.256;2023-06-14T10:36:38;25.67;;;14.93;;
19569;SDS011;9931;51.458;7.256;2023-06-14T10:41:31;14.48;;;13.35;;
19569;SDS011;9931;51.458;7.256;2023-06-14T10:46:40;26.48;;;14.65;;
19569;SDS011;9931;51.458;7.256;2023-06-14T10:49:05;32.45;;;15.60;;
19569;SDS011;9931;51.458;7.256;2023-06-14T10:51:38;20.48;;;13.43;;
19569;SDS011;9931;51.458;7.256;2023-06-14T10:54:11;60.60;;;21.25;;
19569;SDS011;9931;51.458;7.256;2023-06-14T10:56:37;38.92;;;17.20;;
19569;SDS011;9931;51.458;7.256;2023-06-14T10:59:02;20.57;;;16.17;;
19569;SDS011;9931;51.458;7.256;2023-06-14T11:02:38;24.63;;;21.95;;
19569;SDS011;9931;51.458;7.256;2023-06-14T11:04:23;54.58;;;20.10;;
19569;SDS011;9931;51.458;7.256;2023-06-14T11:07:01;62.10;;;21.58;;
19569;SDS011;9931;51.458;7.256;2023-06-14T11:09:37;20.83;;;19.30;;
19569;SDS011;9931;51.458;7.256;2023-06-14T11:12:07;28.23;;;22.35;;
19569;SDS011;9931;51.458;7.256;2023-06-14T11:14:35;32.75;;;30.73;;
19569;SDS011;9931;51.458;7.256;2023-06-14T11:17:00;40.92;;;38.00;;
19569;SDS011;9931;51.458;7.256;2023-06-14T11:19:25;45.13;;;41.15;;
19569;SDS011;9931;51.458;7.256;2023-06-14T11:21:53;41.45;;;37.63;;
19569;SDS011;9931;51.458;7.256;2023-06-14T11:24:19;114.97;;;67.27;;
19569;SDS011;9931;51.458;7.256;2023-06-14T11:26:46;54.38;;;47.35;;
19569;SDS011;9931;51.458;7.256;2023-06-14T11:29:12;47.53;;;40.15;;
19569;SDS011;9931;51.458;7.256;2023-06-14T11:31:37;57.35;;;51.97;;
19569;SDS011;9931;51.458;7.256;2023-06-14T11:34:03;63.20;;;49.05;;
19569;SDS011;9931;51.458;7.256;2023-06-14T11:36:29;66.28;;;50.70;;
19569;SDS011;9931;51.458;7.256;2023-06-14T11:39:02;46.10;;;41.83;;
19569;SDS011;9931;51.458;7.256;2023-06-14T11:41:38;40.20;;;35.65;;
19569;SDS011;9931;51.458;7.256;2023-06-14T11:44:03;39.47;;;35.22;;
19569;SDS011;9931;51.458;7.256;2023-06-14T11:46:29;42.00;;;31.38;;
19569;SDS011;9931;51.458;7.256;2023-06-14T11:48:54;57.60;;;40.47;;
19569;SDS011;9931;51.458;7.256;2023-06-14T11:51:20;57.78;;;51.85;;
19569;SDS011;9931;51.458;7.256;2023-06-14T11:53:45;71.07;;;47.10;;
19569;SDS011;9931;51.458;7.256;2023-06-14T11:56:11;51.72;;;46.92;;
19569;SDS011;9931;51.458;7.256;2023-06-14T11:58:36;46.10;;;41.75;;
19569;SDS011;9931;51.458;7.256;2023-06-14T12:01:03;48.40;;;45.63;;
19569;SDS011;9931;51.458;7.256;2023-06-14T12:03:28;41.90;;;38.28;;
19569;SDS011;9931;51.458;7.256;2023-06-14T12:06:06;48.20;;;43.25;;
19569;SDS011;9931;51.458;7.256;2023-06-14T12:08:37;46.20;;;41.40;;
19569;SDS011;9931;51.458;7.256;2023-06-14T12:11:06;30.77;;;29.20;;
19569;SDS011;9931;51.458;7.256;2023-06-14T12:13:33;51.67;;;25.05;;
19569;SDS011;9931;51.458;7.256;2023-06-14T12:15:58;31.08;;;28.05;;
19569;SDS011;9931;51.458;7.256;2023-06-14T12:18:33;31.00;;;27.93;;
19569;SDS011;9931;51.458;7.256;2023-06-14T12:20:59;32.50;;;29.25;;
19569;SDS011;9931;51.458;7.256;2023-06-14T12:23:38;30.60;;;27.50;;
19569;SDS011;9931;51.458;7.256;2023-06-14T12:26:03;27.27;;;25.60;;
19569;SDS011;9931;51.458;7.256;2023-06-14T12:28:30;32.42;;;28.60;;
19569;SDS011;9931;51.458;7.256;2023-06-14T12:30:56;35.75;;;32.28;;
19569;SDS011;9931;51.458;7.256;2023-06-14T12:33:23;47.53;;;43.15;;
19569;SDS011;9931;51.458;7.256;2023-06-14T12:35:49;42.25;;;31.13;;
19569;SDS011;9931;51.458;7.256;2023-06-14T12:38:15;35.00;;;31.42;;
19569;SDS011;9931;51.458;7.256;2023-06-14T12:40:40;41.55;;;33.28;;
19569;SDS011;9931;51.458;7.256;2023-06-14T12:43:06;43.13;;;39.70;;
19569;SDS011;9931;51.458;7.256;2023-06-14T12:45:31;45.10;;;42.00;;
19569;SDS011;9931;51.458;7.256;2023-06-14T12:47:56;39.63;;;36.07;;
19569;SDS011;9931;51.458;7.256;2023-06-14T12:50:22;35.00;;;31.45;;
19569;SDS011;9931;51.458;7.256;2023-06-14T12:52:47;91.20;;;39.30;;
19569;SDS011;9931;51.458;7.256;2023-06-14T12:55:12;62.85;;;46.80;;
19569;SDS011;9931;51.458;7.256;2023-06-14T12:57:38;82.43;;;49.92;;
19569;SDS011;9931;51.458;7.256;2023-06-14T13:00:03;40.28;;;36.80;;
19569;SDS011;9931;51.458;7.256;2023-06-14T13:02:29;35.55;;;30.77;;
19569;SDS011;9931;51.458;7.256;2023-06-14T13:04:55;33.47;;;28.60;;
19569;SDS011;9931;51.458;7.256;2023-06-14T13:07:20;32.22;;;28.83;;
19569;SDS011;9931;51.458;7.256;2023-06-14T13:09:45;37.95;;;33.50;;
19569;SDS011;9931;51.458;7.256;2023-06-14T13:12:10;30.67;;;26.70;;
19569;SDS011;9931;51.458;7.256;2023-06-14T13:14:39;25.10;;;22.85;;
19569;SDS011;9931;51.458;7.256;2023-06-14T13:17:05;29.90;;;26.90;;
19569;SDS011;9931;51.458;7.256;2023-06-14T13:19:30;32.45;;;29.27;;
19569;SDS011;9931;51.458;7.256;2023-06-14T13:21:56;29.92;;;26.63;;
19569;SDS011;9931;51.458;7.256;2023-06-14T13:24:21;78.73;;;28.50;;
19569;SDS011;9931;51.458;7.256;2023-06-14T13:26:46;40.33;;;26.40;;
19569;SDS011;9931;51.458;7.256;2023-06-14T13:29:11;50.63;;;23.63;;
19569;SDS011;9931;51.458;7.256;2023-06-14T13:31:37;34.60;;;22.55;;
19569;SDS011;9931;51.458;7.256;2023-06-14T13:34:02;25.85;;;22.08;;
19569;SDS011;9931;51.458;7.256;2023-06-14T13:36:27;67.40;;;28.83;;
19569;SDS011;9931;51.458;7.256;2023-06-14T13:38:52;31.97;;;22.87;;
19569;SDS011;9931;51.458;7.256;2023-06-14T13:41:19;29.13;;;18.33;;
19569;SDS011;9931;51.458;7.256;2023-06-14T13:43:45;31.77;;;17.10;;
19569;SDS011;9931;51.458;7.256;2023-06-14T13:46:10;52.28;;;22.23;;
19569;SDS011;9931;51.458;7.256;2023-06-14T13:48:35;27.45;;;21.80;;
19569;SDS011;9931;51.458;7.256;2023-06-14T13:51:00;22.60;;;16.90;;
19569;SDS011;9931;51.458;7.256;2023-06-14T13:53:26;33.72;;;16.23;;
19569;SDS011;9931;51.458;7.256;2023-06-14T13:55:51;31.38;;;16.83;;
19569;SDS011;9931;51.458;7.256;2023-06-14T13:58:17;12.35;;;11.10;;
19569;SDS011;9931;51.458;7.256;2023-06-14T14:00:42;26.25;;;13.25;;
19569;SDS011;9931;51.458;7.256;2023-06-14T14:03:07;34.40;;;15.73;;
19569;SDS011;9931;51.458;7.256;2023-06-14T14:05:34;21.02;;;19.48;;
19569;SDS011;9931;51.458;7.256;2023-06-14T14:07:59;38.65;;;16.80;;
19569;SDS011;9931;51.458;7.256;2023-06-14T14:10:24;33.47;;;23.55;;
19569;SDS011;9931;51.458;7.256;2023-06-14T14:12:50;29.42;;;14.18;;
19569;SDS011;9931;51.458;7.256;2023-06-14T14:15:16;31.92;;;16.77;;
19569;SDS011;9931;51.458;7.256;2023-06-14T14:17:41;25.60;;;14.80;;
19569;SDS011;9931;51.458;7.256;2023-06-14T14:20:06;20.52;;;13.50;;
19569;SDS011;9931;51.458;7.256;2023-06-14T14:22:32;50.53;;;19.25;;
19569;SDS011;9931;51.458;7.256;2023-06-14T14:24:57;23.08;;;14.57;;
19569;SDS011;9931;51.458;7.256;2023-06-14T14:27:22;38.33;;;20.30;;
19569;SDS011;9931;51.458;7.256;2023-06-14T14:29:47;34.53;;;17.17;;
19569;SDS011;9931;51.458;7.256;2023-06-14T14:32:13;24.92;;;18.15;;
19569;SDS011;9931;51.458;7.256;2023-06-14T14:34:39;17.50;;;13.70;;
19569;SDS011;9931;51.458;7.256;2023-06-14T14:37:04;29.95;;;21.45;;
19569;SDS011;9931;51.458;7.256;2023-06-14T14:39:30;49.45;;;19.73;;
19569;SDS011;9931;51.458;7.256;2023-06-14T14:41:55;39.00;;;19.45;;
19569;SDS011;9931;51.458;7.256;2023-06-14T14:44:21;55.15;;;21.80;;
19569;SDS011;9931;51.458;7.256;2023-06-14T14:46:46;48.95;;;15.80;;
19569;SDS011;9931;51.458;7.256;2023-06-14T14:49:11;41.92;;;17.42;;
19569;SDS011;9931;51.458;7.256;2023-06-14T14:51:37;48.17;;;19.40;;
19569;SDS011;9931;51.458;7.256;2023-06-14T14:54:03;19.55;;;17.02;;
19569;SDS011;9931;51.458;7.256;2023-06-14T14:56:28;39.35;;;13.23;;
19569;SDS011;9931;51.458;7.256;2023-06-14T14:58:53;33.63;;;15.77;;
19569;SDS011;9931;51.458;7.256;2023-06-14T15:01:19;26.25;;;16.00;;
19569;SDS011;9931;51.458;7.256;2023-06-14T15:03:44;30.48;;;12.70;;
19569;SDS011;9931;51.458;7.256;2023-06-14T15:06:09;33.53;;;10.63;;
19569;SDS011;9931;51.458;7.256;2023-06-14T15:08:35;56.80;;;13.02;;
19569;SDS011;9931;51.458;7.256;2023-06-14T15:11:00;29.02;;;10.75;;